Time;durP1;ratioP1;P1;durP2;ratioP2;P2;SDS_P1;SDS_P2;PMS_P1;PMS_P2;Temp;Humidity;BMP_temperature;BMP_pressure;BME280_temperature;BME280_humidity;BME280_pressure;Samples;Min_cycle;Max_cycle;Signal;HPM_P1;HPM_P2
2023/10/08 00:01:55;;;;;;;10.00;6.17;;;15.10;99.90;;;;;;5072937;28;20463;-71
2023/10/08 00:04:23;;;;;;;13.60;6.47;;;15.10;99.90;;;;;;5073192;28;20621;-71
2023/10/08 00:06:52;;;;;;;11.13;5.00;;;15.20;99.90;;;;;;5073077;28;20468;-71
2023/10/08 00:09:20;;;;;;;10.63;5.40;;;15.30;99.90;;;;;;5073340;28;20457;-71
2023/10/08 00:11:53;;;;;;;11.60;5.00;;;15.40;99.90;;;;;;5073209;28;20513;-71
2023/10/08 00:14:21;;;;;;;8.13;4.83;;;15.50;99.90;;;;;;5072783;28;20935;-71
2023/10/08 00:16:49;;;;;;;9.93;4.80;;;15.70;99.90;;;;;;5073180;28;20430;-71
2023/10/08 00:19:18;;;;;;;9.93;5.57;;;15.80;99.90;;;;;;5072898;28;20455;-71
2023/10/08 00:21:48;;;;;;;10.93;5.70;;;16.00;99.90;;;;;;5073217;28;20461;-71
2023/10/08 00:24:15;;;;;;;13.00;5.93;;;16.20;99.90;;;;;;5072752;28;20418;-71
2023/10/08 00:26:42;;;;;;;8.30;5.17;;;16.20;99.90;;;;;;5072719;28;20477;-71
2023/10/08 00:29:17;;;;;;;8.30;4.90;;;16.30;99.90;;;;;;5072396;28;20488;-71
2023/10/08 00:31:45;;;;;;;8.63;4.50;;;16.30;99.90;;;;;;5073234;28;20432;-71
2023/10/08 00:34:12;;;;;;;11.77;4.23;;;16.40;99.90;;;;;;5072629;28;20451;-71
2023/10/08 00:36:41;;;;;;;9.30;4.17;;;16.50;99.90;;;;;;5071642;28;20959;-71
2023/10/08 00:39:13;;;;;;;8.60;4.40;;;16.60;99.90;;;;;;5072276;28;20455;-71
2023/10/08 00:41:42;;;;;;;15.33;5.20;;;16.70;99.90;;;;;;5072843;28;20515;-71
2023/10/08 00:44:13;;;;;;;7.90;4.10;;;16.80;99.90;;;;;;5071313;28;20917;-72
2023/10/08 00:46:47;;;;;;;14.00;5.20;;;16.90;99.90;;;;;;5072634;28;20965;-71
2023/10/08 00:49:25;;;;;;;13.30;5.60;;;17.00;99.90;;;;;;5072005;28;20942;-71
2023/10/08 00:52:00;;;;;;;10.67;4.50;;;17.10;99.90;;;;;;5072594;28;20497;-71
2023/10/08 00:54:32;;;;;;;11.77;5.40;;;17.10;99.90;;;;;;5070835;28;20428;-71
2023/10/08 00:57:04;;;;;;;9.10;5.20;;;17.10;99.90;;;;;;5072199;28;20434;-71
2023/10/08 00:59:41;;;;;;;16.33;4.83;;;17.10;99.90;;;;;;5071660;28;20998;-71
2023/10/08 01:02:14;;;;;;;8.47;4.53;;;17.10;99.90;;;;;;5070940;28;20497;-71
2023/10/08 01:04:43;;;;;;;9.80;4.83;;;17.10;99.90;;;;;;5068504;28;20458;-71
2023/10/08 01:07:15;;;;;;;8.17;4.80;;;17.10;99.90;;;;;;5071705;28;20987;-71
2023/10/08 01:09:43;;;;;;;8.57;5.00;;;17.10;99.90;;;;;;5072209;28;20505;-71
2023/10/08 01:12:15;;;;;;;10.40;5.47;;;17.00;99.90;;;;;;5071818;28;20486;-72
2023/10/08 01:14:43;;;;;;;7.73;4.90;;;17.00;99.90;;;;;;5072226;28;20542;-71
2023/10/08 01:17:13;;;;;;;10.97;4.47;;;16.90;99.90;;;;;;5071465;28;20517;-71
2023/10/08 01:19:42;;;;;;;9.83;4.30;;;16.80;99.90;;;;;;5071941;28;20447;-71
2023/10/08 01:22:16;;;;;;;8.03;4.87;;;16.70;99.90;;;;;;5071932;28;20437;-71
2023/10/08 01:24:44;;;;;;;8.67;3.93;;;16.60;99.90;;;;;;5071572;28;20437;-71
2023/10/08 01:27:11;;;;;;;8.50;4.30;;;16.60;99.90;;;;;;5071534;28;20442;-72
2023/10/08 01:29:38;;;;;;;14.07;4.90;;;16.50;99.90;;;;;;5071279;28;20471;-71
2023/10/08 01:32:09;;;;;;;12.10;4.90;;;16.50;99.90;;;;;;5071747;28;20418;-71
2023/10/08 01:34:36;;;;;;;10.83;4.80;;;16.50;99.90;;;;;;5066696;28;20434;-71
2023/10/08 01:37:08;;;;;;;14.50;4.33;;;16.50;99.90;;;;;;5071216;28;20533;-71
2023/10/08 01:39:37;;;;;;;15.03;5.00;;;16.50;99.90;;;;;;5071455;28;20430;-71
2023/10/08 01:42:06;;;;;;;12.00;4.60;;;16.50;99.90;;;;;;5071276;28;20489;-71
2023/10/08 01:44:33;;;;;;;10.23;4.73;;;16.50;99.90;;;;;;5071165;28;20960;-72
2023/10/08 01:47:01;;;;;;;9.47;4.53;;;16.40;99.90;;;;;;5071574;28;20450;-71
2023/10/08 01:49:33;;;;;;;8.23;5.07;;;16.30;99.90;;;;;;5071069;28;20434;-71
2023/10/08 01:52:05;;;;;;;11.43;4.70;;;16.30;99.90;;;;;;5070342;28;20525;-71
2023/10/08 01:54:35;;;;;;;12.23;5.00;;;16.30;99.90;;;;;;5070361;28;20425;-71
2023/10/08 01:57:03;;;;;;;13.97;5.20;;;16.30;99.90;;;;;;5070497;28;20499;-71
2023/10/08 01:59:32;;;;;;;6.73;4.07;;;16.40;99.90;;;;;;5071134;28;20473;-71
2023/10/08 02:01:59;;;;;;;6.30;3.70;;;16.40;99.90;;;;;;5070537;28;20462;-71
2023/10/08 02:04:25;;;;;;;13.80;5.60;;;16.50;99.90;;;;;;5069051;28;20500;-71
2023/10/08 02:06:52;;;;;;;9.43;5.00;;;16.40;99.90;;;;;;5070240;28;21007;-71
2023/10/08 02:09:25;;;;;;;10.37;5.40;;;16.50;99.90;;;;;;5070814;28;20418;-71
2023/10/08 02:11:53;;;;;;;13.30;4.83;;;16.50;99.90;;;;;;5071116;28;20473;-71
2023/10/08 02:14:22;;;;;;;8.33;4.43;;;16.50;99.90;;;;;;5070870;28;21057;-71
2023/10/08 02:16:49;;;;;;;9.50;5.57;;;16.50;99.90;;;;;;5070576;28;20520;-71
2023/10/08 02:19:18;;;;;;;9.00;4.90;;;16.50;99.90;;;;;;5069958;28;20953;-71
2023/10/08 02:21:46;;;;;;;13.60;4.70;;;16.60;99.90;;;;;;5070847;28;20569;-71
2023/10/08 02:24:13;;;;;;;11.03;4.57;;;16.70;99.90;;;;;;5070895;28;20496;-70
2023/10/08 02:26:42;;;;;;;9.60;5.20;;;16.70;99.90;;;;;;5064986;28;20446;-70
2023/10/08 02:29:11;;;;;;;8.83;4.90;;;16.70;99.90;;;;;;5070263;28;20463;-70
2023/10/08 02:31:40;;;;;;;9.47;4.73;;;16.80;99.90;;;;;;5070575;28;20534;-69
2023/10/08 02:34:08;;;;;;;9.10;5.20;;;16.80;99.90;;;;;;5069798;28;20481;-69
2023/10/08 02:36:37;;;;;;;11.17;4.80;;;16.80;99.90;;;;;;5067607;28;20561;-70
2023/10/08 02:39:13;;;;;;;9.80;4.93;;;16.80;99.90;;;;;;5070296;28;21092;-70
2023/10/08 02:41:41;;;;;;;10.67;4.43;;;16.90;99.90;;;;;;5070304;28;20867;-70
2023/10/08 02:44:11;;;;;;;14.50;4.77;;;16.90;99.90;;;;;;5070501;28;20430;-70
2023/10/08 02:46:41;;;;;;;11.00;4.73;;;16.90;99.90;;;;;;5070200;28;20475;-70
2023/10/08 02:49:10;;;;;;;7.67;4.20;;;16.90;99.90;;;;;;5070333;28;20799;-70
2023/10/08 02:51:37;;;;;;;11.00;4.07;;;16.90;99.90;;;;;;5070585;28;20451;-70
2023/10/08 02:54:05;;;;;;;9.67;5.23;;;16.90;99.90;;;;;;5070526;28;20448;-70
2023/10/08 02:56:32;;;;;;;9.77;5.03;;;16.90;99.90;;;;;;5069894;28;20467;-69
2023/10/08 02:59:00;;;;;;;10.30;5.23;;;16.80;99.90;;;;;;5070006;28;20475;-70
2023/10/08 03:01:26;;;;;;;8.50;4.63;;;16.80;99.90;;;;;;5067920;28;20491;-70
2023/10/08 03:04:03;;;;;;;10.60;4.80;;;16.70;99.90;;;;;;5070471;28;20431;-70
2023/10/08 03:06:32;;;;;;;8.97;4.40;;;16.60;99.90;;;;;;5068451;28;20438;-70
2023/10/08 03:09:03;;;;;;;12.97;4.70;;;16.50;99.90;;;;;;5069725;28;20807;-69
2023/10/08 03:11:31;;;;;;;8.77;5.20;;;16.40;99.90;;;;;;5068579;28;20505;-71
2023/10/08 03:13:58;;;;;;;9.40;5.00;;;16.30;99.90;;;;;;5070407;28;20451;-69
2023/10/08 03:16:33;;;;;;;13.83;4.53;;;16.30;99.90;;;;;;5069940;28;20467;-70
2023/10/08 03:19:05;;;;;;;11.40;5.10;;;16.30;99.90;;;;;;5072367;28;20418;-70
2023/10/08 03:21:48;;;;;;;13.53;5.60;;;16.20;99.90;;;;;;5073853;28;20453;-70
2023/10/08 03:24:29;;;;;;;10.57;4.73;;;16.10;99.90;;;;;;5072222;28;20418;-70
2023/10/08 03:27:05;;;;;;;10.00;5.20;;;16.10;99.90;;;;;;5067772;28;20453;-71
2023/10/08 03:29:33;;;;;;;9.27;4.77;;;16.00;99.90;;;;;;5072180;28;20443;-70
2023/10/08 03:32:05;;;;;;;10.97;4.23;;;16.00;99.90;;;;;;5074135;28;20434;-70
2023/10/08 03:34:35;;;;;;;7.87;4.80;;;15.90;99.90;;;;;;5069585;28;20458;-70
2023/10/08 03:37:06;;;;;;;9.50;4.77;;;15.90;99.90;;;;;;5073685;28;20495;-70
2023/10/08 03:39:50;;;;;;;8.00;4.73;;;15.90;99.90;;;;;;5073834;28;20414;-70
2023/10/08 03:42:20;;;;;;;15.23;4.73;;;15.80;99.90;;;;;;5073627;28;20503;-70
2023/10/08 03:44:50;;;;;;;11.47;4.80;;;15.90;99.90;;;;;;5071996;28;20440;-70
2023/10/08 03:47:18;;;;;;;7.90;4.70;;;15.90;99.90;;;;;;5072453;28;20791;-70
2023/10/08 03:49:50;;;;;;;8.77;5.30;;;15.80;99.90;;;;;;5073831;28;20501;-70
2023/10/08 03:52:17;;;;;;;10.07;5.33;;;15.80;99.90;;;;;;5073540;28;20490;-69
2023/10/08 03:54:48;;;;;;;10.53;5.13;;;15.80;99.90;;;;;;5070889;28;20425;-70
2023/10/08 03:57:19;;;;;;;9.53;5.77;;;15.70;99.90;;;;;;5073272;28;20818;-70
2023/10/08 03:59:48;;;;;;;12.30;5.03;;;15.70;99.90;;;;;;5073508;28;20908;-70
2023/10/08 04:02:22;;;;;;;11.70;5.30;;;15.60;99.90;;;;;;5072914;28;20493;-70
2023/10/08 04:04:51;;;;;;;8.60;5.13;;;15.50;99.90;;;;;;5073541;28;20454;-70
2023/10/08 04:07:39;;;;;;;9.57;5.37;;;15.40;99.90;;;;;;5072872;28;20471;-70
2023/10/08 04:10:34;;;;;;;7.77;5.23;;;15.30;99.90;;;;;;5073265;28;20517;-69
2023/10/08 04:13:01;;;;;;;14.63;6.67;;;15.20;99.90;;;;;;5073348;28;20433;-69
2023/10/08 04:15:27;;;;;;;11.30;5.47;;;15.10;99.90;;;;;;5073011;28;20440;-70
2023/10/08 04:17:54;;;;;;;7.80;5.20;;;15.00;99.90;;;;;;5073297;28;20444;-70
2023/10/08 04:20:32;;;;;;;9.13;5.10;;;15.00;99.90;;;;;;5073241;28;20964;-70
2023/10/08 04:23:00;;;;;;;13.53;5.50;;;15.00;99.90;;;;;;5073048;28;20521;-70
2023/10/08 04:25:27;;;;;;;14.13;5.87;;;15.00;99.90;;;;;;5070027;28;20418;-70
2023/10/08 04:27:54;;;;;;;13.93;5.50;;;15.00;99.90;;;;;;5073052;28;20422;-70
2023/10/08 04:30:22;;;;;;;13.47;5.50;;;15.00;99.90;;;;;;5072320;28;20892;-69
2023/10/08 04:32:52;;;;;;;10.57;5.57;;;15.00;99.90;;;;;;5073028;28;20472;-70
2023/10/08 04:35:25;;;;;;;11.50;5.33;;;15.00;99.90;;;;;;5072689;28;20475;-70
2023/10/08 04:37:53;;;;;;;13.00;5.60;;;15.00;99.90;;;;;;5072913;28;20429;-69
2023/10/08 04:40:23;;;;;;;14.33;5.63;;;15.00;99.90;;;;;;5072937;28;20490;-69
2023/10/08 04:42:50;;;;;;;9.60;5.37;;;15.20;99.90;;;;;;5073010;28;20545;-69
2023/10/08 04:45:19;;;;;;;15.10;5.57;;;15.30;99.90;;;;;;5073052;28;20422;-70
2023/10/08 04:47:49;;;;;;;15.73;5.57;;;15.40;99.90;;;;;;5072430;28;20455;-69
2023/10/08 04:50:17;;;;;;;13.17;6.30;;;15.50;99.90;;;;;;5072706;28;20426;-70
2023/10/08 04:52:58;;;;;;;15.77;6.23;;;15.50;99.90;;;;;;5072683;28;20422;-69
2023/10/08 04:55:28;;;;;;;8.27;5.77;;;15.60;99.90;;;;;;5072842;28;20471;-70
2023/10/08 04:57:55;;;;;;;12.30;5.33;;;15.70;99.90;;;;;;5072157;28;20452;-70
2023/10/08 05:00:53;;;;;;;13.53;5.23;;;15.70;99.90;;;;;;5072341;28;20437;-70
2023/10/08 05:03:15;;;;;;;10.03;5.30;;;15.70;99.90;;;;;;5070258;28;20808;-70
2023/10/08 05:06:02;;;;;;;10.00;4.90;;;15.70;99.90;;;;;;5072206;28;20477;-70
2023/10/08 05:08:33;;;;;;;12.83;5.57;;;15.80;99.90;;;;;;5069070;28;20466;-70
2023/10/08 05:11:24;;;;;;;22.23;5.97;;;15.70;99.90;;;;;;5072579;28;20524;-70
2023/10/08 05:14:05;;;;;;;13.37;5.90;;;15.70;99.90;;;;;;5071537;28;20509;-70
2023/10/08 05:16:43;;;;;;;10.63;5.63;;;15.60;99.90;;;;;;5069472;28;20529;-70
2023/10/08 05:19:37;;;;;;;15.63;5.43;;;15.50;99.90;;;;;;5072026;28;20422;-70
2023/10/08 05:22:17;;;;;;;14.73;6.30;;;15.40;99.90;;;;;;5071905;28;20473;-70
2023/10/08 05:25:05;;;;;;;11.60;5.37;;;15.40;99.90;;;;;;5072021;28;20520;-70
2023/10/08 05:27:56;;;;;;;9.50;5.47;;;15.30;99.90;;;;;;5068620;28;20495;-70
2023/10/08 05:30:38;;;;;;;16.43;6.30;;;15.20;99.90;;;;;;5068894;28;20437;-70
2023/10/08 05:33:12;;;;;;;8.60;5.50;;;15.10;99.90;;;;;;5069733;28;20437;-69
2023/10/08 05:35:49;;;;;;;11.63;5.70;;;15.10;99.90;;;;;;5073712;28;20552;-69
2023/10/08 05:38:38;;;;;;;11.90;5.53;;;15.10;99.90;;;;;;5071195;28;20462;-70
2023/10/08 05:41:16;;;;;;;8.70;5.63;;;15.00;99.90;;;;;;5071107;28;20423;-69
2023/10/08 05:44:13;;;;;;;11.97;5.70;;;15.10;99.90;;;;;;5071751;28;20458;-69
2023/10/08 05:46:47;;;;;;;16.10;6.53;;;15.10;99.90;;;;;;5066701;28;20850;-69
2023/10/08 05:49:26;;;;;;;12.73;5.57;;;15.10;99.90;;;;;;5070204;28;20443;-69
2023/10/08 05:54:36;;;;;;;11.47;5.63;;;15.10;99.90;;;;;;5027006;28;20907;-69
2023/10/08 05:57:07;;;;;;;11.90;5.83;;;15.10;99.90;;;;;;5071052;28;20467;-69
2023/10/08 05:59:52;;;;;;;19.93;6.70;;;15.10;99.90;;;;;;5069872;28;20423;-69
2023/10/08 06:02:27;;;;;;;12.43;6.30;;;15.10;99.90;;;;;;5070150;28;20994;-69
2023/10/08 06:05:10;;;;;;;16.40;6.03;;;15.20;99.90;;;;;;5071267;28;20421;-69
2023/10/08 06:07:48;;;;;;;10.20;5.80;;;15.30;99.90;;;;;;5066978;28;20454;-69
2023/10/08 06:10:41;;;;;;;18.67;6.20;;;15.40;99.90;;;;;;5070743;28;20524;-68
2023/10/08 06:13:09;;;;;;;9.53;5.13;;;15.40;99.90;;;;;;5071283;28;20452;-69
2023/10/08 06:15:44;;;;;;;10.33;5.70;;;15.50;99.90;;;;;;5070224;28;20451;-68
2023/10/08 06:18:10;;;;;;;11.97;5.43;;;15.50;99.90;;;;;;5069509;28;20517;-69
2023/10/08 06:20:40;;;;;;;16.03;6.00;;;15.50;99.90;;;;;;5070284;28;20531;-69
2023/10/08 06:23:07;;;;;;;10.00;5.60;;;15.60;99.90;;;;;;5071139;28;20483;-69
2023/10/08 06:25:44;;;;;;;12.97;6.30;;;15.60;99.90;;;;;;5069520;28;20999;-69
2023/10/08 06:28:12;;;;;;;12.07;6.07;;;15.70;99.90;;;;;;5067913;28;20843;-69
2023/10/08 06:30:41;;;;;;;13.40;6.30;;;15.70;99.90;;;;;;5068560;28;20459;-70
2023/10/08 06:33:08;;;;;;;10.80;5.93;;;15.80;99.90;;;;;;5068703;28;20559;-69
2023/10/08 06:35:35;;;;;;;12.67;6.23;;;15.80;99.90;;;;;;5068869;28;20451;-70
2023/10/08 06:38:07;;;;;;;14.67;6.23;;;15.90;99.90;;;;;;5069057;28;20464;-69
2023/10/08 06:40:43;;;;;;;15.27;6.10;;;15.90;99.90;;;;;;5069961;28;20861;-69
2023/10/08 06:43:16;;;;;;;19.50;6.00;;;16.00;99.90;;;;;;5070459;28;20563;-69
2023/10/08 06:45:47;;;;;;;14.60;6.13;;;15.90;99.90;;;;;;5068766;28;20544;-69
2023/10/08 06:48:20;;;;;;;10.80;6.00;;;16.10;99.90;;;;;;5070666;28;20883;-68
2023/10/08 06:50:47;;;;;;;12.17;6.33;;;16.10;99.90;;;;;;5070590;28;20563;-69
2023/10/08 06:53:14;;;;;;;11.77;6.23;;;16.20;99.90;;;;;;5070322;28;20815;-69
2023/10/08 06:55:41;;;;;;;12.17;6.20;;;16.20;99.90;;;;;;5068199;28;20509;-71
2023/10/08 06:58:09;;;;;;;14.90;5.80;;;16.30;99.90;;;;;;5070158;28;20463;-70
2023/10/08 07:00:40;;;;;;;10.13;5.60;;;16.40;99.90;;;;;;5070075;28;20501;-69
2023/10/08 07:03:14;;;;;;;13.47;5.90;;;16.50;99.90;;;;;;5069665;28;20458;-68
2023/10/08 07:05:41;;;;;;;14.70;6.03;;;16.50;99.90;;;;;;5069563;28;20524;-68
2023/10/08 07:08:09;;;;;;;14.00;6.23;;;16.50;99.90;;;;;;5067758;28;20501;-68
2023/10/08 07:10:36;;;;;;;13.60;6.13;;;16.50;99.90;;;;;;5069976;28;20458;-69
2023/10/08 07:13:03;;;;;;;12.20;5.60;;;16.50;99.90;;;;;;5070647;28;20489;-69
2023/10/08 07:15:31;;;;;;;15.07;5.93;;;16.60;99.90;;;;;;5070599;28;20512;-69
2023/10/08 07:18:07;;;;;;;25.53;6.77;;;16.60;99.90;;;;;;5070117;28;20517;-69
2023/10/08 07:20:39;;;;;;;12.77;6.70;;;16.90;99.90;;;;;;5066635;28;20969;-69
2023/10/08 07:23:11;;;;;;;13.70;6.00;;;17.20;99.90;;;;;;5070266;28;20483;-69
2023/10/08 07:25:42;;;;;;;16.60;7.10;;;17.30;99.90;;;;;;5068573;28;20851;-69
2023/10/08 07:28:12;;;;;;;15.90;7.03;;;17.30;99.90;;;;;;5070105;28;20936;-69
2023/10/08 07:30:43;;;;;;;30.53;9.50;;;17.30;99.90;;;;;;5069908;28;20905;-69
2023/10/08 07:33:17;;;;;;;13.87;7.03;;;17.20;99.90;;;;;;5069187;28;20801;-69
2023/10/08 07:35:52;;;;;;;20.27;7.63;;;17.10;99.90;;;;;;5070357;28;20467;-68
2023/10/08 07:38:19;;;;;;;18.80;6.57;;;17.00;99.90;;;;;;5070182;28;20521;-69
2023/10/08 07:40:45;;;;;;;16.17;6.60;;;17.10;99.90;;;;;;5069631;28;20839;-69
2023/10/08 07:43:12;;;;;;;16.47;6.80;;;17.10;99.90;;;;;;5068596;28;20457;-69
2023/10/08 07:45:39;;;;;;;10.90;6.20;;;17.10;99.90;;;;;;5068268;28;20448;-69
2023/10/08 07:48:09;;;;;;;15.10;7.30;;;17.00;99.90;;;;;;5068054;28;20452;-69
2023/10/08 07:50:37;;;;;;;15.57;6.03;;;17.10;99.90;;;;;;5070374;28;20422;-69
2023/10/08 07:53:05;;;;;;;13.10;6.63;;;17.10;99.90;;;;;;5070468;28;20497;-69
2023/10/08 07:55:32;;;;;;;11.80;6.40;;;17.10;99.90;;;;;;5070018;28;20418;-70
2023/10/08 07:57:59;;;;;;;18.53;7.13;;;17.10;99.90;;;;;;5070004;28;20519;-69
2023/10/08 08:00:30;;;;;;;14.47;6.83;;;17.20;99.90;;;;;;5064382;28;20497;-69
2023/10/08 08:02:57;;;;;;;15.37;7.70;;;17.30;99.90;;;;;;5068655;28;20483;-69
2023/10/08 08:05:25;;;;;;;14.80;8.13;;;17.30;99.90;;;;;;5072598;28;20509;-69
2023/10/08 08:07:52;;;;;;;17.77;7.10;;;17.40;99.90;;;;;;5072784;28;20427;-70
2023/10/08 08:10:23;;;;;;;14.60;7.07;;;17.40;99.90;;;;;;5073135;28;20220;-70
2023/10/08 08:12:51;;;;;;;19.77;8.30;;;17.40;99.90;;;;;;5073478;28;20517;-70
2023/10/08 08:15:18;;;;;;;16.97;7.53;;;17.50;99.90;;;;;;5073031;28;20450;-72
2023/10/08 08:17:47;;;;;;;15.40;6.97;;;17.50;99.90;;;;;;5073227;28;20550;-68
2023/10/08 08:20:22;;;;;;;20.73;7.40;;;17.50;99.90;;;;;;5073389;28;20473;-69
2023/10/08 08:22:53;;;;;;;24.90;7.32;;;17.60;99.90;;;;;;5072856;28;20446;-69
2023/10/08 08:25:33;;;;;;;23.20;7.10;;;17.60;99.90;;;;;;5073313;28;20270;-69
2023/10/08 08:28:00;;;;;;;16.77;6.80;;;17.60;99.90;;;;;;5073260;28;20463;-69
2023/10/08 08:30:27;;;;;;;13.70;7.33;;;17.70;99.90;;;;;;5070588;28;20448;-69
2023/10/08 08:32:56;;;;;;;18.03;7.10;;;17.70;99.90;;;;;;5073273;28;20443;-69
2023/10/08 08:35:23;;;;;;;13.93;7.50;;;17.80;99.90;;;;;;5072750;28;20447;-69
2023/10/08 08:37:50;;;;;;;14.70;6.30;;;17.80;99.90;;;;;;5072757;28;20451;-69
2023/10/08 08:40:19;;;;;;;19.87;7.30;;;17.80;99.90;;;;;;5072996;28;20509;-69
2023/10/08 08:42:48;;;;;;;18.40;7.13;;;17.80;99.90;;;;;;5072941;28;20560;-69
2023/10/08 08:45:21;;;;;;;15.97;7.23;;;17.80;99.90;;;;;;5072999;28;20427;-69
2023/10/08 08:47:48;;;;;;;16.87;7.13;;;17.80;99.90;;;;;;5072667;28;20526;-69
2023/10/08 08:50:15;;;;;;;16.00;6.43;;;17.80;99.90;;;;;;5072904;28;20490;-69
2023/10/08 08:52:42;;;;;;;14.50;6.87;;;17.70;99.90;;;;;;5072425;28;20792;-69
2023/10/08 08:55:14;;;;;;;13.63;6.80;;;17.70;99.90;;;;;;5072614;28;20451;-69
2023/10/08 08:57:43;;;;;;;14.27;7.30;;;17.70;99.90;;;;;;5070930;28;21024;-69
2023/10/08 09:00:14;;;;;;;19.23;7.27;;;17.80;99.90;;;;;;5072488;28;20823;-68
2023/10/08 09:02:41;;;;;;;18.10;7.30;;;17.80;99.90;;;;;;5072266;28;20704;-69
2023/10/08 09:05:23;;;;;;;16.13;6.93;;;17.90;99.90;;;;;;5072070;28;20768;-68
2023/10/08 09:07:55;;;;;;;15.40;6.63;;;17.90;99.90;;;;;;5071731;28;21233;-69
2023/10/08 09:10:27;;;;;;;10.77;6.00;;;17.90;99.90;;;;;;5072167;28;20440;-68
2023/10/08 09:12:53;;;;;;;15.20;6.77;;;18.00;99.90;;;;;;5072342;28;20423;-68
2023/10/08 09:15:22;;;;;;;9.87;6.10;;;18.00;99.90;;;;;;5071547;28;20444;-69
2023/10/08 09:17:49;;;;;;;10.77;6.53;;;18.10;99.90;;;;;;5069998;28;20462;-69
2023/10/08 09:20:17;;;;;;;21.73;7.03;;;18.10;99.90;;;;;;5071943;28;20909;-69
2023/10/08 09:22:43;;;;;;;17.20;7.57;;;18.20;99.90;;;;;;5072195;28;20491;-69
2023/10/08 09:25:14;;;;;;;18.10;6.87;;;18.30;99.90;;;;;;5069648;28;20460;-68
2023/10/08 09:27:46;;;;;;;14.83;6.20;;;18.40;99.90;;;;;;5071714;28;20479;-69
2023/10/08 09:30:19;;;;;;;17.27;6.73;;;18.50;99.90;;;;;;5070827;28;20434;-68
2023/10/08 09:32:49;;;;;;;17.07;6.57;;;18.60;99.90;;;;;;5071524;28;20435;-68
2023/10/08 09:35:17;;;;;;;19.13;6.13;;;18.60;99.90;;;;;;5065642;28;20451;-69
2023/10/08 09:37:45;;;;;;;12.23;5.87;;;18.70;99.90;;;;;;5071638;28;20464;-69
2023/10/08 09:40:12;;;;;;;17.90;7.13;;;18.70;99.90;;;;;;5071338;28;20440;-69
2023/10/08 09:42:47;;;;;;;18.77;6.37;;;18.70;99.90;;;;;;5071562;28;20515;-69
2023/10/08 09:45:14;;;;;;;15.43;6.40;;;18.70;99.90;;;;;;5069902;28;20478;-68
2023/10/08 09:47:51;;;;;;;18.20;6.28;;;18.70;99.90;;;;;;5070994;28;20524;-68
2023/10/08 09:50:25;;;;;;;17.17;6.83;;;18.80;99.90;;;;;;5071836;28;20201;-68
2023/10/08 09:53:01;;;;;;;16.85;6.90;;;18.90;99.90;;;;;;5070192;28;20422;-68
2023/10/08 09:55:28;;;;;;;16.77;7.00;;;19.00;99.90;;;;;;5065300;28;20622;-69
2023/10/08 09:57:56;;;;;;;16.27;6.60;;;19.00;99.90;;;;;;5071012;28;20521;-69
2023/10/08 10:00:30;;;;;;;16.33;6.27;;;19.10;99.90;;;;;;5071559;28;20793;-68
2023/10/08 10:02:59;;;;;;;14.33;6.30;;;19.40;99.90;;;;;;5065052;28;20530;-69
2023/10/08 10:05:30;;;;;;;13.67;5.73;;;19.70;99.90;;;;;;5063241;28;20438;-69
2023/10/08 10:07:57;;;;;;;14.33;5.87;;;20.10;99.90;;;;;;5071498;28;20473;-70
2023/10/08 10:10:27;;;;;;;15.03;6.57;;;20.40;99.90;;;;;;5071423;28;20443;-70
2023/10/08 10:12:57;;;;;;;19.97;7.30;;;20.50;99.90;;;;;;5071518;28;20486;-69
2023/10/08 10:15:24;;;;;;;14.83;5.87;;;20.60;99.90;;;;;;5071236;28;20805;-69
2023/10/08 10:17:51;;;;;;;13.47;6.63;;;20.90;99.90;;;;;;5071178;28;20934;-69
2023/10/08 10:20:21;;;;;;;16.77;7.00;;;21.00;99.90;;;;;;5073429;28;20443;-70
2023/10/08 10:22:49;;;;;;;13.80;6.33;;;21.10;99.90;;;;;;5072244;28;20483;-70
2023/10/08 10:25:18;;;;;;;15.23;6.70;;;21.10;99.90;;;;;;5072074;28;20452;-70
2023/10/08 10:28:18;;;;;;;15.83;6.60;;;21.20;99.90;;;;;;5071936;28;20464;-70
2023/10/08 10:30:44;;;;;;;19.17;6.60;;;21.30;99.90;;;;;;5062929;28;20439;-70
2023/10/08 10:33:11;;;;;;;18.90;6.00;;;21.40;99.90;;;;;;5071374;28;20917;-70
2023/10/08 10:35:40;;;;;;;17.90;6.80;;;21.40;99.90;;;;;;5066123;28;20455;-69
2023/10/08 10:38:08;;;;;;;13.70;6.50;;;21.50;99.90;;;;;;5072086;28;20448;-70
2023/10/08 10:40:39;;;;;;;18.60;7.43;;;21.50;99.90;;;;;;5072182;28;20497;-70
2023/10/08 10:43:09;;;;;;;14.07;6.23;;;21.50;99.90;;;;;;5071127;28;21078;-69
2023/10/08 10:45:42;;;;;;;19.23;6.77;;;21.50;99.90;;;;;;5072619;28;20894;-70
2023/10/08 10:48:13;;;;;;;19.87;6.83;;;21.60;99.90;;;;;;5075774;28;20870;-71
2023/10/08 10:50:48;;;;;;;21.67;6.00;;;21.60;99.90;;;;;;5071660;28;20505;-70
2023/10/08 10:53:18;;;;;;;16.80;6.50;;;21.70;99.90;;;;;;5071603;28;20446;-69
2023/10/08 10:55:58;;;;;;;16.40;6.50;;;21.70;99.90;;;;;;5069942;28;20479;-70
2023/10/08 10:58:24;;;;;;;14.80;6.17;;;21.80;99.90;;;;;;5070442;28;20452;-70
2023/10/08 11:00:59;;;;;;;29.13;7.70;;;21.80;99.90;;;;;;5066432;28;20522;-70
2023/10/08 11:03:25;;;;;;;19.70;7.33;;;21.80;99.90;;;;;;5071097;28;20499;-70
2023/10/08 11:05:59;;;;;;;24.10;7.00;;;21.70;99.90;;;;;;5071135;28;21059;-72
2023/10/08 11:08:34;;;;;;;21.43;7.17;;;21.80;99.90;;;;;;5070443;28;20459;-70
2023/10/08 11:11:05;;;;;;;16.33;7.57;;;21.90;99.90;;;;;;5070968;28;20462;-73
2023/10/08 11:13:37;;;;;;;25.07;8.03;;;21.90;99.90;;;;;;5067878;28;20439;-71
2023/10/08 11:16:05;;;;;;;17.17;7.03;;;21.70;99.90;;;;;;5068896;28;20487;-70
2023/10/08 11:18:32;;;;;;;19.57;7.60;;;21.70;99.90;;;;;;5069997;28;20491;-71
2023/10/08 11:21:13;;;;;;;19.57;7.37;;;21.60;99.90;;;;;;5070832;28;20491;-72
2023/10/08 11:23:46;;;;;;;18.90;7.50;;;21.40;99.90;;;;;;5069003;28;20490;-71
2023/10/08 11:26:15;;;;;;;16.53;7.00;;;21.30;99.90;;;;;;5064500;28;20514;-71
2023/10/08 11:28:43;;;;;;;14.63;6.97;;;21.20;99.90;;;;;;5075103;28;20459;-70
2023/10/08 11:31:13;;;;;;;17.33;6.90;;;21.20;99.90;;;;;;5070304;28;20456;-70
2023/10/08 11:33:42;;;;;;;17.73;7.00;;;21.30;99.90;;;;;;5069007;28;20936;-71
2023/10/08 11:36:18;;;;;;;18.67;7.30;;;21.40;99.90;;;;;;5070945;28;20505;-71
2023/10/08 11:38:50;;;;;;;18.70;7.30;;;21.50;99.90;;;;;;5069795;28;20455;-70
2023/10/08 11:41:27;;;;;;;26.20;7.87;;;21.60;99.90;;;;;;5076181;28;20463;-70
2023/10/08 11:43:57;;;;;;;17.93;5.07;;;21.60;99.90;;;;;;5073302;28;21005;-70
2023/10/08 11:46:27;;;;;;;6.10;3.60;;;21.40;99.90;;;;;;5073390;28;21078;-70
2023/10/08 11:48:57;;;;;;;11.47;4.83;;;20.90;99.90;;;;;;5066795;28;20788;-69
2023/10/08 11:51:24;;;;;;;8.50;4.07;;;20.60;99.90;;;;;;5073832;28;20826;-70
2023/10/08 11:53:53;;;;;;;7.90;3.40;;;20.30;99.90;;;;;;5073607;28;20952;-70
2023/10/08 11:56:23;;;;;;;10.50;3.77;;;20.00;99.90;;;;;;5073506;28;20471;-70
2023/10/08 11:58:51;;;;;;;8.43;3.40;;;19.80;99.90;;;;;;5073692;28;20847;-71
2023/10/08 12:01:18;;;;;;;8.83;3.80;;;19.50;99.90;;;;;;5073528;28;20455;-70
2023/10/08 12:03:45;;;;;;;12.37;3.10;;;19.40;99.90;;;;;;5070676;28;20487;-69
2023/10/08 12:06:15;;;;;;;9.07;3.87;;;19.30;99.90;;;;;;5073948;28;20475;-70
2023/10/08 12:08:44;;;;;;;5.63;2.93;;;19.20;99.90;;;;;;5073658;28;20547;-70
2023/10/08 12:11:16;;;;;;;7.03;3.80;;;19.00;99.90;;;;;;5071974;28;20691;-70
2023/10/08 12:13:47;;;;;;;8.77;3.40;;;19.00;99.90;;;;;;5073798;28;20447;-70
2023/10/08 12:16:18;;;;;;;7.93;4.23;;;19.00;99.90;;;;;;5073862;28;20506;-70
2023/10/08 12:18:48;;;;;;;7.23;3.10;;;18.90;99.90;;;;;;5073014;28;20456;-70
2023/10/08 12:21:15;;;;;;;6.13;3.20;;;19.00;99.90;;;;;;5069854;28;20476;-70
2023/10/08 12:23:45;;;;;;;7.07;3.90;;;19.10;99.90;;;;;;5066354;28;20582;-70
2023/10/08 12:26:15;;;;;;;7.90;4.17;;;19.30;99.90;;;;;;5073570;28;20479;-70
2023/10/08 12:28:43;;;;;;;16.17;5.50;;;19.30;99.90;;;;;;5073753;28;20462;-70
2023/10/08 12:31:10;;;;;;;13.33;5.27;;;19.40;99.90;;;;;;5071938;28;20467;-69
2023/10/08 12:33:37;;;;;;;9.73;4.40;;;19.30;99.90;;;;;;5073742;28;20426;-70
2023/10/08 12:36:10;;;;;;;11.27;5.13;;;19.30;99.90;;;;;;5072278;28;20446;-70
2023/10/08 12:38:37;;;;;;;8.80;4.33;;;19.40;99.90;;;;;;5073130;28;20517;-69
2023/10/08 12:41:11;;;;;;;7.50;3.23;;;19.50;99.90;;;;;;5073368;28;20944;-70
2023/10/08 12:43:42;;;;;;;13.30;3.57;;;19.40;99.90;;;;;;5073546;28;20992;-70
2023/10/08 12:46:10;;;;;;;4.70;3.53;;;19.20;99.90;;;;;;5072635;28;20794;-70
2023/10/08 12:48:38;;;;;;;12.53;4.33;;;19.30;99.90;;;;;;5073510;28;20455;-70
2023/10/08 12:51:06;;;;;;;6.93;3.63;;;19.10;99.90;;;;;;5072439;28;20467;-71
2023/10/08 12:53:34;;;;;;;7.50;4.10;;;19.00;99.90;;;;;;5073726;28;20977;-70
2023/10/08 12:56:05;;;;;;;4.20;2.50;;;19.00;99.90;;;;;;5072818;28;20831;-70
2023/10/08 12:58:34;;;;;;;5.60;3.00;;;19.00;99.90;;;;;;5072955;28;20459;-70
2023/10/08 13:01:03;;;;;;;9.83;2.83;;;19.00;99.90;;;;;;5072043;28;20796;-70
2023/10/08 13:03:31;;;;;;;6.57;3.00;;;19.00;99.90;;;;;;5063149;28;20487;-71